Metar GG30 METAR message from awiacja.imgw.pl Metar G30 EPKK METAR EPKK 040930Z 27005KT 7000 FEW006 BKN008 18/17 Q1007 =